Time,TemperatureF,DewpointF,PressureIn,WindDirection,WindDirectionDegrees,WindSpeedMPH,WindSpeedGustMPH,Humidity,HourlyPrecipIn,Conditions,Clouds,dailyrainin,SoftwareType,DateUTC
2013-05-19 00:00:00,28.0,20.0,-100.00,WNW,296,8.0,19.0,71,-99.99,,,-99.99,,2013-05-19 06:00:00,
2013-05-19 00:42:00,28.0,20.0,-100.00,WNW,296,8.0,19.0,71,-99.99,,,-99.99,,2013-05-19 06:42:00,
2013-05-19 00:52:00,28.0,20.0,-100.00,WNW,296,8.0,19.0,71,-99.99,,,-99.99,,2013-05-19 06:52:00,
2013-05-19 01:00:00,26.0,21.0,-100.00,NW,323,6.0,20.0,81,-99.99,,,-99.99,,2013-05-19 07:00:00,
2013-05-19 01:42:00,26.0,21.0,-100.00,NW,323,6.0,20.0,81,-99.99,,,-99.99,,2013-05-19 07:42:00,
2013-05-19 01:52:00,26.0,21.0,-100.00,NW,323,6.0,20.0,81,-99.99,,,-99.99,,2013-05-19 07:52:00,
2013-05-19 02:00:00,26.0,22.0,-100.00,NNW,335,7.0,14.0,83,-99.99,,,-99.99,,2013-05-19 08:00:00,
2013-05-19 02:42:00,26.0,22.0,-100.00,NNW,335,7.0,14.0,83,-99.99,,,-99.99,,2013-05-19 08:42:00,
2013-05-19 02:52:00,26.0,22.0,-100.00,NNW,335,7.0,14.0,83,-99.99,,,-99.99,,2013-05-19 08:52:00,
2013-05-19 03:00:00,25.0,23.0,-100.00,NNW,346,5.0,12.0,90,-99.99,,,-99.99,,2013-05-19 09:00:00,
2013-05-19 03:43:00,25.0,23.0,-100.00,NNW,346,5.0,12.0,90,-99.99,,,-99.99,,2013-05-19 09:43:00,
2013-05-19 03:53:00,25.0,23.0,-100.00,NNW,346,5.0,12.0,90,-99.99,,,-99.99,,2013-05-19 09:53:00,
2013-05-19 04:00:00,24.0,22.0,-100.00,North,10,4.0,10.0,92,-99.99,,,-99.99,,2013-05-19 10:00:00,
2013-05-19 04:42:00,24.0,22.0,-100.00,North,10,4.0,10.0,92,-99.99,,,-99.99,,2013-05-19 10:42:00,
2013-05-19 04:52:00,24.0,22.0,-100.00,North,10,4.0,10.0,92,-99.99,,,-99.99,,2013-05-19 10:52:00,
2013-05-19 05:00:00,23.0,22.0,-100.00,NNE,12,5.0,11.0,93,-99.99,,,-99.99,,2013-05-19 11:00:00,
2013-05-19 05:42:00,23.0,22.0,-100.00,NNE,12,5.0,11.0,93,-99.99,,,-99.99,,2013-05-19 11:42:00,
2013-05-19 05:52:00,23.0,22.0,-100.00,NNE,12,5.0,11.0,93,-99.99,,,-99.99,,2013-05-19 11:52:00,
2013-05-19 06:00:00,23.0,22.0,-100.00,North,2,7.0,13.0,96,-99.99,,,-99.99,,2013-05-19 12:00:00,
2013-05-19 06:42:00,23.0,22.0,-100.00,North,2,7.0,13.0,96,-99.99,,,-99.99,,2013-05-19 12:42:00,
2013-05-19 06:52:00,23.0,22.0,-100.00,North,2,7.0,13.0,96,-99.99,,,-99.99,,2013-05-19 12:52:00,
2013-05-19 07:00:00,23.0,21.0,-100.00,ESE,106,3.0,7.0,92,-99.99,,,-99.99,,2013-05-19 13:00:00,
2013-05-19 07:42:00,23.0,21.0,-100.00,ESE,106,3.0,7.0,92,-99.99,,,-99.99,,2013-05-19 13:42:00,
2013-05-19 07:52:00,23.0,21.0,-100.00,ESE,106,3.0,7.0,92,-99.99,,,-99.99,,2013-05-19 13:52:00,
2013-05-19 08:00:00,24.0,19.0,-100.00,WSW,241,4.0,12.0,80,-99.99,,,-99.99,,2013-05-19 14:00:00,
2013-05-19 08:42:00,24.0,19.0,-100.00,WSW,241,4.0,12.0,80,-99.99,,,-99.99,,2013-05-19 14:42:00,
2013-05-19 08:52:00,24.0,19.0,-100.00,WSW,241,4.0,12.0,80,-99.99,,,-99.99,,2013-05-19 14:52:00,
2013-05-19 09:00:00,25.0,21.0,-100.00,NW,313,4.0,12.0,86,-99.99,,,-99.99,,2013-05-19 15:00:00,
2013-05-19 09:43:00,25.0,21.0,-100.00,NW,313,4.0,12.0,86,-99.99,,,-99.99,,2013-05-19 15:43:00,
2013-05-19 09:53:00,25.0,21.0,-100.00,NW,313,4.0,12.0,86,-99.99,,,-99.99,,2013-05-19 15:53:00,
2013-05-19 10:00:00,25.0,22.0,-100.00,South,187,10.0,19.0,90,-99.99,,,-99.99,,2013-05-19 16:00:00,
2013-05-19 10:42:00,25.0,22.0,-100.00,South,187,10.0,19.0,90,-99.99,,,-99.99,,2013-05-19 16:42:00,
2013-05-19 10:52:00,25.0,22.0,-100.00,South,187,10.0,19.0,90,-99.99,,,-99.99,,2013-05-19 16:52:00,
2013-05-19 11:00:00,26.0,19.0,-100.00,SSW,197,9.0,23.0,73,-99.99,,,-99.99,,2013-05-19 17:00:00,
2013-05-19 11:43:00,26.0,19.0,-100.00,SSW,197,9.0,23.0,73,-99.99,,,-99.99,,2013-05-19 17:43:00,
2013-05-19 11:52:00,26.0,19.0,-100.00,SSW,197,9.0,23.0,73,-99.99,,,-99.99,,2013-05-19 17:52:00,
2013-05-19 12:00:00,28.0,18.0,-100.00,WSW,255,9.0,18.0,65,-99.99,,,-99.99,,2013-05-19 18:00:00,
2013-05-19 12:43:00,28.0,18.0,-100.00,WSW,255,9.0,18.0,65,-99.99,,,-99.99,,2013-05-19 18:43:00,
2013-05-19 12:53:00,28.0,18.0,-100.00,WSW,255,9.0,18.0,65,-99.99,,,-99.99,,2013-05-19 18:53:00,
2013-05-19 13:00:00,28.0,20.0,-100.00,SSW,206,12.0,26.0,71,-99.99,,,-99.99,,2013-05-19 19:00:00,
2013-05-19 13:42:00,28.0,20.0,-100.00,SSW,206,12.0,26.0,71,-99.99,,,-99.99,,2013-05-19 19:42:00,
2013-05-19 13:52:00,28.0,20.0,-100.00,SSW,206,12.0,26.0,71,-99.99,,,-99.99,,2013-05-19 19:52:00,
2013-05-19 14:00:00,28.0,18.0,-100.00,West,270,8.0,34.0,65,-99.99,,,-99.99,,2013-05-19 20:00:00,
2013-05-19 14:42:00,28.0,18.0,-100.00,West,270,8.0,34.0,65,-99.99,,,-99.99,,2013-05-19 20:42:00,
2013-05-19 14:52:00,28.0,18.0,-100.00,West,270,8.0,34.0,65,-99.99,,,-99.99,,2013-05-19 20:52:00,
2013-05-19 15:00:00,29.0,18.0,-100.00,WNW,291,12.0,45.0,62,-99.99,,,-99.99,,2013-05-19 21:00:00,
2013-05-19 15:43:00,29.0,18.0,-100.00,WNW,291,12.0,45.0,62,-99.99,,,-99.99,,2013-05-19 21:43:00,
2013-05-19 15:53:00,29.0,18.0,-100.00,WNW,291,12.0,45.0,62,-99.99,,,-99.99,,2013-05-19 21:53:00,
2013-05-19 16:00:00,27.0,21.0,-100.00,NNW,331,18.0,39.0,79,-99.99,,,-99.99,,2013-05-19 22:00:00,
2013-05-19 16:42:00,27.0,21.0,-100.00,NNW,331,18.0,39.0,79,-99.99,,,-99.99,,2013-05-19 22:42:00,
2013-05-19 16:53:00,27.0,21.0,-100.00,NNW,331,18.0,39.0,79,-99.99,,,-99.99,,2013-05-19 22:53:00,
2013-05-19 17:00:00,25.0,23.0,-100.00,NNW,333,21.0,32.0,92,-99.99,,,-99.99,,2013-05-19 23:00:00,
2013-05-19 17:42:00,25.0,23.0,-100.00,NNW,333,21.0,32.0,92,-99.99,,,-99.99,,2013-05-19 23:42:00,
2013-05-19 17:52:00,25.0,23.0,-100.00,NNW,333,21.0,32.0,92,-99.99,,,-99.99,,2013-05-19 23:52:00,
2013-05-19 18:00:00,25.0,24.0,-100.00,North,350,13.0,29.0,96,-99.99,,,-99.99,,2013-05-20 00:00:00,
2013-05-19 18:42:00,25.0,24.0,-100.00,North,350,13.0,29.0,96,-99.99,,,-99.99,,2013-05-20 00:42:00,
2013-05-19 18:52:00,25.0,24.0,-100.00,North,350,13.0,29.0,96,-99.99,,,-99.99,,2013-05-20 00:52:00,
2013-05-19 19:00:00,24.0,23.0,-100.00,NNW,336,12.0,21.0,96,-99.99,,,-99.99,,2013-05-20 01:00:00,
2013-05-19 19:42:00,24.0,23.0,-100.00,NNW,336,12.0,21.0,96,-99.99,,,-99.99,,2013-05-20 01:42:00,
2013-05-19 19:52:00,24.0,23.0,-100.00,NNW,336,12.0,21.0,96,-99.99,,,-99.99,,2013-05-20 01:52:00,
2013-05-19 20:00:00,24.0,23.0,-100.00,North,360,9.0,17.0,95,-99.99,,,-99.99,,2013-05-20 02:00:00,
2013-05-19 20:42:00,24.0,23.0,-100.00,North,360,9.0,17.0,95,-99.99,,,-99.99,,2013-05-20 02:42:00,
2013-05-19 20:52:00,24.0,23.0,-100.00,North,360,9.0,17.0,95,-99.99,,,-99.99,,2013-05-20 02:52:00,
2013-05-19 21:00:00,24.0,22.0,-100.00,North,356,15.0,22.0,90,-99.99,,,-99.99,,2013-05-20 03:00:00,
2013-05-19 21:43:00,24.0,22.0,-100.00,North,356,15.0,22.0,90,-99.99,,,-99.99,,2013-05-20 03:43:00,
2013-05-19 21:52:00,24.0,22.0,-100.00,North,356,15.0,22.0,90,-99.99,,,-99.99,,2013-05-20 03:52:00,
2013-05-19 22:00:00,25.0,20.0,-100.00,NNE,16,8.0,14.0,84,-99.99,,,-99.99,,2013-05-20 04:00:00,
2013-05-19 22:43:00,25.0,20.0,-100.00,NNE,16,8.0,14.0,84,-99.99,,,-99.99,,2013-05-20 04:43:00,
2013-05-19 22:52:00,25.0,20.0,-100.00,NNE,16,8.0,14.0,84,-99.99,,,-99.99,,2013-05-20 04:52:00,
2013-05-19 23:00:00,25.0,20.0,-100.00,North,349,6.0,12.0,79,-99.99,,,-99.99,,2013-05-20 05:00:00,
2013-05-19 23:42:00,25.0,20.0,-100.00,North,349,6.0,12.0,79,-99.99,,,-99.99,,2013-05-20 05:42:00,
2013-05-19 23:52:00,25.0,20.0,-100.00,North,349,6.0,12.0,79,-99.99,,,-99.99,,2013-05-20 05:52:00,